Time;durP1;ratioP1;P1;durP2;ratioP2;P2;SDS_P1;SDS_P2;PMS_P1;PMS_P2;Temp;Humidity;BMP_temperature;BMP_pressure;BME280_temperature;BME280_humidity;BME280_pressure;Samples;Min_cycle;Max_cycle;Signal;HPM_P1;HPM_P2
2021/01/20 00:02:22;;;;;;;5.55;3.55;;;6.70;99.90;;;;;;5051772;28;20028;-74
2021/01/20 00:04:48;;;;;;;5.82;3.70;;;6.70;99.90;;;;;;5054180;28;20531;-75
2021/01/20 00:07:14;;;;;;;6.57;3.55;;;6.70;99.90;;;;;;5056910;28;20021;-74
2021/01/20 00:09:40;;;;;;;5.93;3.42;;;6.60;99.90;;;;;;5057242;28;20032;-74
2021/01/20 00:12:06;;;;;;;5.95;3.60;;;6.70;99.90;;;;;;5059645;28;20028;-74
2021/01/20 00:14:31;;;;;;;5.35;3.40;;;6.70;99.90;;;;;;5054674;28;20021;-74
2021/01/20 00:16:57;;;;;;;4.70;3.40;;;6.60;99.90;;;;;;5050321;28;20037;-74
2021/01/20 00:19:22;;;;;;;6.43;3.83;;;6.60;99.90;;;;;;5048165;28;20036;-74
2021/01/20 00:21:48;;;;;;;5.60;3.65;;;6.50;99.90;;;;;;5061633;28;20033;-74
2021/01/20 00:24:14;;;;;;;6.05;4.22;;;6.50;99.90;;;;;;5056211;28;20028;-74
2021/01/20 00:26:40;;;;;;;5.50;3.65;;;6.50;99.90;;;;;;5050657;28;20029;-73
2021/01/20 00:29:05;;;;;;;6.63;3.90;;;6.50;99.90;;;;;;5067399;28;20025;-75
2021/01/20 00:31:30;;;;;;;8.55;3.97;;;6.50;99.90;;;;;;5066903;28;20025;-74
2021/01/20 00:33:56;;;;;;;5.78;3.55;;;6.50;99.90;;;;;;5049937;28;20060;-73
2021/01/20 00:36:21;;;;;;;5.90;3.75;;;6.50;99.90;;;;;;5048575;28;20025;-74
2021/01/20 00:38:47;;;;;;;6.68;4.20;;;6.50;99.90;;;;;;5053867;28;20028;-74
2021/01/20 00:41:12;;;;;;;8.88;3.85;;;6.50;99.90;;;;;;5057908;28;20089;-75
2021/01/20 00:43:38;;;;;;;7.22;4.15;;;6.40;99.90;;;;;;5057420;28;20036;-74
2021/01/20 00:46:03;;;;;;;5.65;3.85;;;6.50;99.90;;;;;;5048029;28;20071;-75
2021/01/20 00:48:29;;;;;;;7.03;4.00;;;6.40;99.90;;;;;;5049548;28;20380;-74
2021/01/20 00:50:58;;;;;;;6.10;4.15;;;6.50;99.90;;;;;;5066649;28;20024;-74
2021/01/20 00:53:23;;;;;;;6.10;3.70;;;6.50;99.90;;;;;;5063670;28;20021;-74
2021/01/20 00:55:49;;;;;;;6.93;3.95;;;6.40;99.90;;;;;;5048579;28;20379;-74
2021/01/20 00:58:15;;;;;;;7.40;4.28;;;6.40;99.90;;;;;;5050584;28;20040;-74
2021/01/20 01:00:41;;;;;;;8.43;3.95;;;6.30;99.90;;;;;;5067617;28;20055;-74
2021/01/20 01:03:06;;;;;;;8.25;4.47;;;6.30;99.90;;;;;;5050969;28;20029;-74
2021/01/20 01:05:32;;;;;;;7.10;4.05;;;6.30;99.90;;;;;;5057397;28;20028;-74
2021/01/20 01:07:57;;;;;;;8.82;5.30;;;6.30;99.90;;;;;;5048928;28;20035;-74
2021/01/20 01:10:23;;;;;;;7.05;4.00;;;6.30;99.90;;;;;;5048291;28;20116;-74
2021/01/20 01:12:49;;;;;;;5.95;4.20;;;6.20;99.90;;;;;;5047917;28;20021;-74
2021/01/20 01:15:14;;;;;;;6.50;4.18;;;6.20;99.90;;;;;;5056722;28;20099;-74
2021/01/20 01:17:40;;;;;;;7.18;4.35;;;6.30;99.90;;;;;;5056462;28;20035;-74
2021/01/20 01:20:06;;;;;;;6.68;4.05;;;6.20;99.90;;;;;;5060257;28;20484;-75
2021/01/20 01:22:31;;;;;;;6.75;4.30;;;6.30;99.90;;;;;;5051579;28;20083;-74
2021/01/20 01:24:57;;;;;;;6.95;4.30;;;6.30;99.90;;;;;;5057713;28;20029;-74
2021/01/20 01:27:22;;;;;;;8.07;5.15;;;6.30;99.90;;;;;;5054398;28;20036;-74
2021/01/20 01:29:48;;;;;;;7.28;4.18;;;6.30;99.90;;;;;;5060386;28;20071;-74
2021/01/20 01:32:13;;;;;;;8.45;4.45;;;6.40;99.90;;;;;;5059546;28;20075;-74
2021/01/20 01:34:39;;;;;;;6.70;4.28;;;6.40;99.90;;;;;;5051656;28;20032;-74
2021/01/20 01:37:04;;;;;;;8.70;4.30;;;6.40;99.90;;;;;;5065267;28;20038;-74
2021/01/20 01:39:33;;;;;;;6.70;4.40;;;6.30;99.90;;;;;;5051597;28;20429;-74
2021/01/20 01:41:59;;;;;;;6.13;3.80;;;6.20;99.90;;;;;;5053965;28;20403;-73
2021/01/20 01:44:24;;;;;;;7.55;4.97;;;6.20;99.90;;;;;;5057231;28;20083;-75
2021/01/20 01:46:50;;;;;;;7.22;4.43;;;6.20;99.90;;;;;;5053049;28;20043;-74
2021/01/20 01:49:16;;;;;;;7.78;4.75;;;6.20;99.90;;;;;;5071310;28;20054;-74
2021/01/20 01:51:41;;;;;;;7.57;4.53;;;6.20;99.90;;;;;;5067093;28;20063;-74
2021/01/20 01:54:08;;;;;;;6.47;4.35;;;6.20;99.90;;;;;;5051434;28;20016;-74
2021/01/20 01:56:34;;;;;;;7.72;4.57;;;6.30;99.90;;;;;;5050905;28;20039;-74
2021/01/20 01:58:59;;;;;;;8.30;4.97;;;6.30;99.90;;;;;;5069948;28;20013;-74
2021/01/20 02:01:25;;;;;;;6.75;4.78;;;6.20;99.90;;;;;;5069119;28;20395;-74
2021/01/20 02:03:51;;;;;;;9.00;4.70;;;6.20;99.90;;;;;;5051140;28;20094;-75
2021/01/20 02:06:17;;;;;;;8.35;5.15;;;6.30;99.90;;;;;;5051643;28;20033;-74
2021/01/20 02:08:44;;;;;;;7.82;5.15;;;6.20;99.90;;;;;;5055794;28;20036;-74
2021/01/20 02:11:44;;;;;;;7.10;4.78;;;6.30;99.90;;;;;;5066497;28;20085;-74
2021/01/20 02:14:29;;;;;;;7.60;4.90;;;6.30;99.90;;;;;;5060128;28;20037;-75
2021/01/20 02:17:21;;;;;;;7.68;4.93;;;6.20;99.90;;;;;;5065781;28;20519;-74
2021/01/20 02:20:10;;;;;;;8.80;5.00;;;6.30;99.90;;;;;;5058083;28;20115;-74
2021/01/20 02:22:45;;;;;;;7.22;4.55;;;6.30;99.90;;;;;;5052472;28;20017;-74
2021/01/20 02:25:32;;;;;;;7.55;4.53;;;6.30;99.90;;;;;;5067109;28;20025;-74
2021/01/20 02:28:20;;;;;;;13.10;4.95;;;6.20;99.90;;;;;;5059991;28;20589;-73
2021/01/20 02:30:46;;;;;;;8.25;5.45;;;6.30;99.90;;;;;;5058804;28;20028;-74
2021/01/20 02:33:18;;;;;;;9.15;5.93;;;6.30;99.90;;;;;;5054811;28;20107;-74
2021/01/20 02:35:44;;;;;;;;;;;6.20;99.90;;;;;;5051361;28;20377;-75
2021/01/20 02:38:10;;;;;;;9.32;5.82;;;6.20;99.90;;;;;;5050313;28;19909;-74
2021/01/20 02:40:36;;;;;;;7.57;5.35;;;6.20;99.90;;;;;;5052034;28;20071;-74
2021/01/20 02:43:02;;;;;;;10.55;6.35;;;6.20;99.90;;;;;;5065593;28;20383;-74
2021/01/20 02:45:27;;;;;;;8.10;5.45;;;6.30;99.90;;;;;;5050531;28;20053;-74
2021/01/20 02:47:54;;;;;;;7.75;5.72;;;6.30;99.90;;;;;;5056228;28;20025;-74
2021/01/20 02:50:20;;;;;;;8.30;6.13;;;6.30;99.90;;;;;;5059309;28;20123;-74
2021/01/20 02:53:00;;;;;;;8.85;6.35;;;6.20;99.90;;;;;;5068727;28;20021;-74
2021/01/20 02:55:28;;;;;;;9.00;6.27;;;6.30;99.90;;;;;;5050053;28;20052;-74
2021/01/20 02:57:59;;;;;;;9.98;6.43;;;6.30;99.90;;;;;;5049845;28;20028;-74
2021/01/20 03:00:26;;;;;;;8.45;6.00;;;6.20;99.90;;;;;;5052878;28;20036;-74
2021/01/20 03:02:52;;;;;;;9.10;6.18;;;6.20;99.90;;;;;;5051452;28;20116;-74
2021/01/20 03:05:20;;;;;;;8.85;5.78;;;6.20;99.90;;;;;;5055160;28;20036;-73
2021/01/20 03:07:45;;;;;;;9.98;6.32;;;6.20;99.90;;;;;;5052552;28;20028;-74
2021/01/20 03:10:13;;;;;;;8.40;5.80;;;6.20;99.90;;;;;;5055515;28;20044;-74
2021/01/20 03:12:41;;;;;;;9.20;5.85;;;6.20;99.90;;;;;;5049841;28;20032;-74
2021/01/20 03:15:13;;;;;;;10.73;6.47;;;6.20;99.90;;;;;;5049781;28;20060;-73
2021/01/20 03:17:39;;;;;;;11.18;6.22;;;6.20;99.90;;;;;;5049664;28;20086;-74
2021/01/20 03:20:05;;;;;;;9.07;6.32;;;6.10;99.90;;;;;;5056693;28;20028;-74
2021/01/20 03:22:31;;;;;;;9.93;6.22;;;6.20;99.90;;;;;;5055211;28;20027;-75
2021/01/20 03:24:56;;;;;;;10.38;5.97;;;6.20;99.90;;;;;;5062619;28;20024;-74
2021/01/20 03:27:21;;;;;;;8.45;6.00;;;6.20;99.90;;;;;;5050765;28;20130;-74
2021/01/20 03:29:47;;;;;;;9.38;6.38;;;6.10;99.90;;;;;;5058880;28;20491;-74
2021/01/20 03:32:12;;;;;;;8.32;6.05;;;6.10;99.90;;;;;;5052444;28;20052;-73
2021/01/20 03:34:39;;;;;;;8.95;6.10;;;6.10;99.90;;;;;;5049214;28;20028;-74
2021/01/20 03:37:05;;;;;;;11.32;6.00;;;6.10;99.90;;;;;;5049138;28;20021;-74
2021/01/20 03:39:30;;;;;;;9.43;6.20;;;6.00;99.90;;;;;;5048768;28;20095;-74
2021/01/20 03:41:56;;;;;;;9.63;6.43;;;6.00;99.90;;;;;;5050451;28;20037;-74
2021/01/20 03:44:22;;;;;;;9.80;6.18;;;6.10;99.90;;;;;;5048986;28;20095;-74
2021/01/20 03:46:50;;;;;;;9.43;6.03;;;6.00;99.90;;;;;;5049513;28;20021;-74
2021/01/20 03:49:16;;;;;;;9.13;6.07;;;6.00;99.90;;;;;;5049076;28;20218;-74
2021/01/20 03:51:41;;;;;;;10.52;6.05;;;6.00;99.90;;;;;;5049422;28;20076;-74
2021/01/20 03:54:06;;;;;;;8.35;5.88;;;6.00;99.90;;;;;;5049112;28;20040;-73
2021/01/20 03:56:32;;;;;;;9.52;6.18;;;5.90;99.90;;;;;;5049452;28;20024;-74
2021/01/20 03:58:57;;;;;;;10.23;6.22;;;6.00;99.90;;;;;;5048943;28;20028;-74
2021/01/20 04:01:23;;;;;;;8.73;6.38;;;6.00;99.90;;;;;;5050160;28;20109;-73
2021/01/20 04:03:48;;;;;;;9.23;5.47;;;6.00;99.90;;;;;;5048949;28;20021;-75
2021/01/20 04:06:14;;;;;;;9.65;6.45;;;6.00;99.90;;;;;;5065631;28;20135;-74
2021/01/20 04:08:40;;;;;;;10.68;6.35;;;5.90;99.90;;;;;;5061415;28;20040;-74
2021/01/20 04:11:05;;;;;;;11.43;6.68;;;5.90;99.90;;;;;;5048789;28;20048;-75
2021/01/20 04:13:31;;;;;;;11.48;6.13;;;5.80;99.90;;;;;;5055948;28;20024;-74
2021/01/20 04:15:56;;;;;;;8.13;5.70;;;5.70;99.90;;;;;;5053806;28;20044;-74
2021/01/20 04:18:22;;;;;;;9.77;6.13;;;5.70;99.90;;;;;;5048551;28;20056;-74
2021/01/20 04:20:47;;;;;;;8.27;5.93;;;5.60;99.90;;;;;;5052124;28;20034;-74
2021/01/20 04:23:13;;;;;;;8.70;5.57;;;5.70;99.90;;;;;;5048257;28;20387;-73
2021/01/20 04:25:38;;;;;;;9.60;6.10;;;5.70;99.90;;;;;;5048856;28;20032;-73
2021/01/20 04:28:04;;;;;;;11.20;6.05;;;5.70;99.90;;;;;;5048152;28;20033;-74
2021/01/20 04:30:29;;;;;;;9.75;6.03;;;5.60;99.90;;;;;;5050372;28;20036;-74
2021/01/20 04:32:55;;;;;;;10.30;6.05;;;5.70;99.90;;;;;;5050640;28;20017;-74
2021/01/20 04:35:20;;;;;;;11.55;6.47;;;5.70;99.90;;;;;;5053481;28;20036;-74
2021/01/20 04:37:45;;;;;;;10.25;6.22;;;5.70;99.90;;;;;;5048641;28;20108;-74
2021/01/20 04:40:11;;;;;;;14.77;7.35;;;5.70;99.90;;;;;;5054238;28;20409;-74
2021/01/20 04:42:37;;;;;;;12.40;7.90;;;5.70;99.90;;;;;;5054485;28;20028;-74
2021/01/20 04:45:04;;;;;;;11.50;6.97;;;5.70;99.90;;;;;;5056374;28;20033;-75
2021/01/20 04:47:32;;;;;;;8.77;5.85;;;5.70;99.90;;;;;;5055429;28;20426;-74
2021/01/20 04:49:58;;;;;;;9.65;5.35;;;5.70;99.90;;;;;;5064920;28;20021;-74
2021/01/20 04:52:27;;;;;;;10.13;5.82;;;5.70;99.90;;;;;;5069535;28;20039;-74
2021/01/20 04:54:54;;;;;;;11.65;5.90;;;5.70;99.90;;;;;;5057450;28;20023;-74
2021/01/20 04:57:21;;;;;;;8.80;6.07;;;5.70;99.90;;;;;;5056057;28;20112;-74
2021/01/20 04:59:49;;;;;;;10.25;5.60;;;5.70;99.90;;;;;;5060205;28;20025;-75
2021/01/20 05:02:15;;;;;;;8.75;5.07;;;5.60;99.90;;;;;;5055208;28;20029;-74
2021/01/20 05:04:41;;;;;;;7.65;4.70;;;5.60;99.90;;;;;;5069729;28;20123;-75
2021/01/20 05:07:07;;;;;;;7.55;4.60;;;5.60;99.90;;;;;;5052736;28;20064;-74
2021/01/20 05:09:33;;;;;;;10.15;4.63;;;5.60;99.90;;;;;;5051792;28;20028;-74
2021/01/20 05:11:59;;;;;;;7.45;4.55;;;5.60;99.90;;;;;;5062385;28;20546;-74
2021/01/20 05:14:24;;;;;;;6.53;4.00;;;5.70;99.90;;;;;;5059679;28;20027;-75
2021/01/20 05:16:52;;;;;;;7.57;4.03;;;5.70;99.90;;;;;;5061232;28;20024;-74
2021/01/20 05:19:35;;;;;;;7.90;3.50;;;5.70;99.90;;;;;;5054818;28;20434;-74
2021/01/20 05:22:05;;;;;;;6.90;3.88;;;5.70;99.90;;;;;;5060509;28;20025;-74
2021/01/20 05:24:32;;;;;;;5.70;3.70;;;5.70;99.90;;;;;;5059055;28;20034;-74
2021/01/20 05:26:58;;;;;;;6.72;3.67;;;5.70;99.90;;;;;;5051952;28;20371;-74
2021/01/20 05:29:24;;;;;;;5.78;3.10;;;5.70;99.90;;;;;;5056705;28;20120;-74
2021/01/20 05:31:49;;;;;;;4.00;3.33;;;5.60;99.90;;;;;;5051316;28;20033;-74
2021/01/20 05:34:21;;;;;;;6.57;3.45;;;5.60;99.90;;;;;;5052931;28;20032;-74
2021/01/20 05:37:03;;;;;;;6.07;2.90;;;5.60;99.90;;;;;;5051541;28;20488;-74
2021/01/20 05:39:30;;;;;;;5.60;3.15;;;5.60;99.90;;;;;;5054157;28;20748;-74
2021/01/20 05:42:09;;;;;;;6.53;3.17;;;5.60;99.90;;;;;;5055723;28;20060;-74
2021/01/20 05:44:35;;;;;;;5.03;2.90;;;5.60;99.90;;;;;;5060469;28;20052;-74
2021/01/20 05:47:08;;;;;;;7.80;2.88;;;5.70;99.90;;;;;;5070478;28;20533;-74
2021/01/20 05:49:34;;;;;;;5.07;3.15;;;5.60;99.90;;;;;;5062988;28;20055;-74
2021/01/20 05:52:00;;;;;;;7.35;3.10;;;5.60;99.90;;;;;;5051130;28;20265;-74
2021/01/20 05:54:37;;;;;;;8.63;2.85;;;5.60;99.90;;;;;;5061545;28;20025;-74
2021/01/20 05:57:21;;;;;;;8.52;3.30;;;5.50;99.90;;;;;;5050653;28;20519;-74
2021/01/20 05:59:48;;;;;;;4.75;3.20;;;5.50;99.90;;;;;;5070280;28;20082;-74
2021/01/20 06:02:15;;;;;;;6.75;3.10;;;5.50;99.90;;;;;;5053253;28;20024;-73
2021/01/20 06:04:42;;;;;;;7.30;3.75;;;5.40;99.90;;;;;;5052021;28;20071;-74
2021/01/20 06:07:10;;;;;;;5.47;3.17;;;5.40;99.90;;;;;;5068620;28;20036;-74
2021/01/20 06:09:38;;;;;;;5.20;3.25;;;5.40;99.90;;;;;;5062105;28;20085;-74
2021/01/20 06:12:05;;;;;;;5.60;3.58;;;5.40;99.90;;;;;;5068170;28;20025;-74
2021/01/20 06:14:30;;;;;;;5.85;3.40;;;5.30;99.90;;;;;;5050715;28;20032;-74
2021/01/20 06:17:14;;;;;;;6.75;3.95;;;5.40;99.90;;;;;;5050509;28;20029;-73
2021/01/20 06:19:45;;;;;;;8.57;3.72;;;5.40;99.90;;;;;;5050428;28;20052;-73
2021/01/20 06:22:14;;;;;;;8.25;3.70;;;5.40;99.90;;;;;;5050376;28;20496;-74
2021/01/20 06:24:47;;;;;;;6.70;3.75;;;5.40;99.90;;;;;;5061766;28;20085;-74
2021/01/20 06:27:20;;;;;;;7.07;3.80;;;5.40;99.90;;;;;;5054534;28;20043;-74
2021/01/20 06:29:50;;;;;;;5.70;3.90;;;5.40;99.90;;;;;;5056622;28;20036;-74
2021/01/20 06:32:21;;;;;;;8.30;4.60;;;5.40;99.90;;;;;;5050639;28;20090;-74
2021/01/20 06:34:54;;;;;;;7.93;4.25;;;5.40;99.90;;;;;;5056986;28;20025;-74
2021/01/20 06:37:33;;;;;;;6.60;3.92;;;5.40;99.90;;;;;;5056309;28;20020;-74
2021/01/20 06:39:59;;;;;;;8.15;3.83;;;5.40;99.90;;;;;;5049816;28;20403;-74
2021/01/20 06:42:32;;;;;;;5.40;3.60;;;5.50;99.90;;;;;;5051533;28;20029;-74
2021/01/20 06:45:14;;;;;;;7.50;3.70;;;5.40;99.90;;;;;;5057937;28;20044;-74
2021/01/20 06:47:58;;;;;;;6.43;3.65;;;5.40;99.90;;;;;;5053014;28;20044;-74
2021/01/20 06:50:24;;;;;;;7.88;3.88;;;5.40;99.90;;;;;;5051760;28;20116;-75
2021/01/20 06:53:00;;;;;;;5.75;3.95;;;5.40;99.90;;;;;;5056206;28;20283;-74
2021/01/20 06:55:30;;;;;;;6.93;3.67;;;5.40;99.90;;;;;;5050095;28;20104;-74
2021/01/20 06:58:19;;;;;;;7.53;4.10;;;5.40;99.90;;;;;;5054259;28;20033;-74
2021/01/20 07:01:11;;;;;;;7.18;4.18;;;5.40;99.90;;;;;;5063250;28;20112;-74
2021/01/20 07:03:43;;;;;;;;;;;5.40;99.90;;;;;;5058247;28;20043;-74
2021/01/20 07:06:33;;;;;;;7.25;3.05;;;5.40;99.90;;;;;;5072796;28;20450;-74
2021/01/20 07:09:00;;;;;;;8.35;3.72;;;5.40;99.90;;;;;;5049725;28;20534;-74
2021/01/20 07:11:26;;;;;;;8.00;3.90;;;5.40;99.90;;;;;;5052931;28;20025;-74
2021/01/20 07:13:52;;;;;;;9.40;3.85;;;5.40;99.90;;;;;;5054743;28;20021;-75
2021/01/20 07:16:18;;;;;;;8.32;3.85;;;5.40;99.90;;;;;;5059868;28;20609;-74
2021/01/20 07:18:50;;;;;;;8.85;3.70;;;5.50;99.90;;;;;;5060739;28;20039;-75
2021/01/20 07:21:16;;;;;;;8.23;3.08;;;5.50;99.90;;;;;;5061652;28;20070;-77
2021/01/20 07:23:41;;;;;;;8.38;3.30;;;5.50;99.90;;;;;;5064103;28;20033;-78
2021/01/20 07:26:07;;;;;;;5.82;3.03;;;5.50;99.90;;;;;;5062997;28;20032;-76
2021/01/20 07:28:34;;;;;;;5.07;3.10;;;5.50;99.90;;;;;;5062047;28;20568;-86
2021/01/20 07:31:13;;;;;;;4.22;2.95;;;5.60;99.90;;;;;;5061721;28;20036;-83
2021/01/20 07:33:40;;;;;;;4.80;2.90;;;5.60;99.90;;;;;;5063416;28;20024;-80
2021/01/20 07:36:17;;;;;;;7.97;2.92;;;5.60;99.90;;;;;;5060570;28;20025;-83
2021/01/20 07:38:47;;;;;;;6.05;2.47;;;5.60;99.90;;;;;;5062683;28;20036;-83
2021/01/20 07:41:26;;;;;;;4.43;3.00;;;5.50;99.90;;;;;;5062545;28;20032;-84
2021/01/20 07:44:06;;;;;;;6.78;3.00;;;5.60;99.90;;;;;;5064409;28;20037;-84
2021/01/20 07:46:31;;;;;;;5.50;3.08;;;5.70;99.90;;;;;;5061630;28;20055;-84
2021/01/20 07:49:08;;;;;;;6.07;2.63;;;5.80;99.90;;;;;;5062907;28;20036;-83
2021/01/20 07:51:34;;;;;;;5.43;3.08;;;5.70;99.90;;;;;;5064623;28;20016;-83
2021/01/20 07:54:03;;;;;;;7.35;2.70;;;5.80;99.90;;;;;;5062633;28;20552;-75
2021/01/20 07:56:30;;;;;;;4.85;2.60;;;5.80;99.90;;;;;;5063580;28;20032;-75
2021/01/20 07:58:57;;;;;;;4.38;2.65;;;5.80;99.90;;;;;;5051283;28;20522;-75
2021/01/20 08:01:30;;;;;;;7.18;2.88;;;5.90;99.90;;;;;;5063930;28;20047;-76
2021/01/20 08:03:57;;;;;;;4.88;2.45;;;5.90;99.90;;;;;;5057630;28;20036;-76
2021/01/20 08:06:24;;;;;;;5.53;2.70;;;6.00;99.90;;;;;;5059929;28;20058;-75
2021/01/20 08:08:55;;;;;;;6.45;2.83;;;6.00;99.90;;;;;;5064859;28;20027;-75
2021/01/20 08:11:24;;;;;;;4.47;2.80;;;6.00;99.90;;;;;;5061925;28;20422;-75
2021/01/20 08:13:51;;;;;;;3.00;2.28;;;6.00;99.90;;;;;;5061416;28;20275;-75
2021/01/20 08:16:18;;;;;;;4.75;2.42;;;6.00;99.90;;;;;;5061265;28;20041;-75
2021/01/20 08:18:45;;;;;;;6.30;2.78;;;6.10;99.90;;;;;;5058127;28;20036;-75
2021/01/20 08:21:11;;;;;;;5.43;2.40;;;6.10;99.90;;;;;;5060501;28;20058;-75
2021/01/20 08:23:53;;;;;;;7.28;2.60;;;6.20;99.90;;;;;;5061542;28;20032;-75
2021/01/20 08:26:26;;;;;;;;;;;6.20;99.90;;;;;;5060122;28;20028;-79
2021/01/20 08:29:04;;;;;;;5.38;2.60;;;6.20;99.90;;;;;;5062337;28;19912;-76
2021/01/20 08:31:29;;;;;;;8.60;4.00;;;6.30;99.90;;;;;;5067872;28;20090;-77
2021/01/20 08:34:14;;;;;;;5.95;2.92;;;6.30;99.90;;;;;;5066007;28;20104;-76
2021/01/20 08:37:13;;;;;;;4.13;2.90;;;6.30;99.90;;;;;;5065734;28;20047;-78
2021/01/20 08:39:51;;;;;;;6.40;3.17;;;6.30;99.90;;;;;;5064368;28;20040;-76
2021/01/20 08:42:26;;;;;;;3.85;2.50;;;6.40;99.90;;;;;;5068110;28;20032;-74
2021/01/20 08:45:08;;;;;;;6.78;3.20;;;6.50;99.90;;;;;;5067874;28;20045;-75
2021/01/20 08:47:35;;;;;;;5.60;2.67;;;6.50;99.90;;;;;;5064143;28;21156;-75
2021/01/20 08:50:00;;;;;;;5.93;2.40;;;6.50;99.90;;;;;;5062018;28;20427;-75
2021/01/20 08:52:47;;;;;;;4.05;2.53;;;6.50;99.90;;;;;;5066781;28;20021;-75
2021/01/20 08:55:24;;;;;;;6.03;2.97;;;6.50;99.90;;;;;;5066308;28;20037;-74
2021/01/20 08:58:24;;;;;;;5.90;2.78;;;6.50;99.90;;;;;;5064226;28;20025;-74
2021/01/20 09:00:53;;;;;;;4.03;2.40;;;6.50;99.90;;;;;;5066575;28;20027;-74
2021/01/20 09:03:24;;;;;;;10.65;2.83;;;6.60;99.90;;;;;;5065713;28;20119;-74
2021/01/20 09:05:51;;;;;;;4.78;2.60;;;6.60;99.90;;;;;;5062888;28;20095;-75
2021/01/20 09:08:17;;;;;;;4.20;2.75;;;6.60;99.90;;;;;;5066481;28;20106;-74
2021/01/20 09:10:44;;;;;;;6.18;3.03;;;6.70;99.90;;;;;;5065863;28;20028;-75
2021/01/20 09:13:10;;;;;;;7.15;2.80;;;6.70;99.90;;;;;;5066485;28;20049;-74
2021/01/20 09:15:36;;;;;;;4.28;2.50;;;6.80;99.90;;;;;;5069478;28;20033;-73
2021/01/20 09:18:02;;;;;;;3.40;2.28;;;6.80;99.90;;;;;;5065671;28;20032;-77
2021/01/20 09:20:27;;;;;;;3.47;2.33;;;6.90;99.90;;;;;;5064702;28;20025;-78
2021/01/20 09:22:53;;;;;;;10.25;2.95;;;6.90;99.90;;;;;;5068347;28;20042;-80
2021/01/20 09:25:18;;;;;;;5.55;2.80;;;6.90;99.90;;;;;;5066953;28;20498;-76
2021/01/20 09:27:44;;;;;;;5.80;2.80;;;6.90;99.90;;;;;;5062995;28;20028;-74
2021/01/20 09:30:10;;;;;;;5.70;3.03;;;7.00;99.90;;;;;;5059748;28;20047;-77
2021/01/20 09:32:39;;;;;;;4.50;2.67;;;7.10;99.90;;;;;;5059787;28;20020;-78
2021/01/20 09:35:10;;;;;;;5.03;2.67;;;7.10;99.90;;;;;;5054461;28;20559;-75
2021/01/20 09:37:36;;;;;;;4.82;2.60;;;7.10;99.90;;;;;;5064302;28;20051;-75
2021/01/20 09:40:05;;;;;;;4.70;2.65;;;7.20;99.90;;;;;;5060837;28;20056;-75
2021/01/20 09:42:30;;;;;;;6.15;2.90;;;7.20;99.90;;;;;;5068572;28;20040;-75
2021/01/20 09:44:56;;;;;;;4.75;2.47;;;7.20;99.90;;;;;;5066586;28;20048;-74
2021/01/20 09:47:21;;;;;;;4.60;2.58;;;7.20;99.90;;;;;;5067155;28;20092;-75
2021/01/20 09:49:47;;;;;;;3.70;2.13;;;7.20;99.90;;;;;;5069610;28;20344;-74
2021/01/20 09:52:15;;;;;;;4.60;2.50;;;7.30;99.90;;;;;;5065690;28;20067;-74
2021/01/20 09:54:42;;;;;;;4.78;2.58;;;7.30;99.90;;;;;;5069821;28;20555;-75
2021/01/20 09:57:07;;;;;;;3.30;2.20;;;7.40;99.90;;;;;;5062004;28;20059;-74
2021/01/20 09:59:33;;;;;;;3.53;2.30;;;7.50;99.90;;;;;;5066611;28;20498;-78
2021/01/20 10:01:58;;;;;;;8.13;2.38;;;7.60;99.90;;;;;;5066558;28;20494;-73
2021/01/20 10:04:24;;;;;;;4.18;2.28;;;7.70;99.90;;;;;;5064986;28;20029;-76
2021/01/20 10:06:51;;;;;;;5.00;2.20;;;7.70;99.90;;;;;;5072130;28;20094;-77
2021/01/20 10:09:25;;;;;;;3.92;2.03;;;7.80;99.90;;;;;;5065719;28;20484;-76
2021/01/20 10:11:50;;;;;;;4.00;2.45;;;7.80;99.90;;;;;;5059759;28;21292;-77
2021/01/20 10:14:17;;;;;;;3.45;2.00;;;7.80;99.90;;;;;;5063599;28;20065;-76
2021/01/20 10:16:46;;;;;;;5.05;2.47;;;7.90;99.90;;;;;;5066803;28;20028;-77
2021/01/20 10:19:13;;;;;;;3.28;2.03;;;7.90;99.90;;;;;;5065718;28;20479;-77
2021/01/20 10:21:38;;;;;;;4.05;2.30;;;7.90;99.90;;;;;;5067058;28;20569;-76
2021/01/20 10:24:04;;;;;;;4.78;2.50;;;8.10;99.90;;;;;;5065151;28;20177;-76
2021/01/20 10:26:29;;;;;;;5.60;2.42;;;8.10;99.90;;;;;;5068193;28;20119;-77
2021/01/20 10:28:55;;;;;;;3.65;2.03;;;8.10;99.50;;;;;;5068053;28;20182;-77
2021/01/20 10:31:20;;;;;;;3.28;2.10;;;8.10;99.40;;;;;;5064569;28;20028;-76
2021/01/20 10:33:46;;;;;;;3.72;1.80;;;8.10;99.30;;;;;;5068531;28;20718;-76
2021/01/20 10:36:11;;;;;;;3.65;2.30;;;8.10;99.60;;;;;;5063810;28;20051;-76
2021/01/20 10:38:37;;;;;;;7.80;2.20;;;8.20;99.10;;;;;;5062018;28;20020;-75
2021/01/20 10:41:03;;;;;;;3.50;2.20;;;8.10;98.40;;;;;;5064587;28;20471;-76
2021/01/20 10:43:28;;;;;;;5.45;2.30;;;8.10;98.70;;;;;;5062185;28;20079;-76
2021/01/20 10:46:13;;;;;;;4.88;1.90;;;8.10;98.40;;;;;;5063661;28;20139;-76
2021/01/20 10:48:38;;;;;;;3.08;1.85;;;8.20;98.10;;;;;;5061970;28;20131;-76
2021/01/20 10:51:04;;;;;;;3.38;2.20;;;8.30;98.20;;;;;;5064392;28;20036;-76
2021/01/20 10:53:30;;;;;;;7.20;2.33;;;8.30;97.80;;;;;;5069168;28;20052;-76
2021/01/20 10:55:55;;;;;;;3.15;2.20;;;8.40;97.60;;;;;;5065343;28;20391;-76
2021/01/20 10:58:21;;;;;;;6.03;2.45;;;8.30;96.70;;;;;;5070770;28;20035;-76
2021/01/20 11:00:48;;;;;;;6.15;2.13;;;8.40;96.50;;;;;;5064923;28;20040;-76
2021/01/20 11:03:13;;;;;;;4.40;2.42;;;8.40;95.20;;;;;;5065663;28;20024;-76
2021/01/20 11:05:39;;;;;;;3.67;2.15;;;8.50;95.60;;;;;;5067313;28;20037;-76
2021/01/20 11:08:05;;;;;;;3.28;2.20;;;8.50;94.60;;;;;;5068055;28;20161;-76
2021/01/20 11:10:31;;;;;;;5.30;1.80;;;8.50;94.80;;;;;;5068305;28;20052;-76
2021/01/20 11:12:56;;;;;;;3.75;1.95;;;8.50;93.80;;;;;;5064556;28;20067;-75
2021/01/20 11:15:21;;;;;;;4.80;1.95;;;8.50;93.70;;;;;;5068314;28;20024;-76
2021/01/20 11:17:49;;;;;;;4.00;1.83;;;8.60;93.40;;;;;;5068881;28;20024;-76
2021/01/20 11:20:15;;;;;;;2.65;1.92;;;8.70;93.00;;;;;;5073758;28;20029;-76
2021/01/20 11:22:40;;;;;;;5.10;1.90;;;8.70;92.40;;;;;;5072316;28;20382;-76
2021/01/20 11:25:07;;;;;;;4.20;2.30;;;8.70;92.20;;;;;;5073240;28;20028;-76
2021/01/20 11:27:33;;;;;;;5.00;2.03;;;8.70;91.90;;;;;;5071998;28;20440;-77
2021/01/20 11:29:58;;;;;;;2.58;1.50;;;8.70;91.60;;;;;;5072825;28;20027;-76
2021/01/20 11:32:24;;;;;;;3.50;1.75;;;8.70;91.50;;;;;;5073430;28;20059;-75
2021/01/20 11:34:49;;;;;;;4.20;1.75;;;8.80;91.30;;;;;;5073277;28;20052;-79
2021/01/20 11:37:15;;;;;;;5.00;1.88;;;8.80;91.70;;;;;;5073128;28;20051;-78
2021/01/20 11:39:41;;;;;;;5.93;1.80;;;8.80;91.30;;;;;;5068524;28;20025;-78
2021/01/20 11:42:06;;;;;;;2.35;1.73;;;8.90;91.20;;;;;;5060280;28;20037;-78
2021/01/20 11:44:32;;;;;;;2.95;1.75;;;8.90;91.40;;;;;;5053009;28;20048;-78
2021/01/20 11:46:57;;;;;;;3.53;1.73;;;8.90;91.90;;;;;;5049121;28;20380;-79
2021/01/20 11:49:23;;;;;;;4.28;2.10;;;8.90;91.60;;;;;;5062483;28;20028;-79
2021/01/20 11:51:48;;;;;;;4.05;2.15;;;8.80;91.70;;;;;;5063637;28;20474;-78
2021/01/20 11:54:14;;;;;;;3.45;1.92;;;8.80;91.70;;;;;;5054068;28;20024;-77
2021/01/20 11:56:39;;;;;;;3.65;2.00;;;8.90;92.00;;;;;;5046140;28;20029;-77
2021/01/20 11:59:05;;;;;;;5.30;2.35;;;8.90;92.40;;;;;;5056812;28;20059;-73
2021/01/20 12:01:37;;;;;;;3.67;2.10;;;9.00;92.40;;;;;;5057573;28;20036;-77
2021/01/20 12:04:06;;;;;;;7.07;2.10;;;9.00;92.80;;;;;;5064590;28;20029;-78
2021/01/20 12:07:11;;;;;;;3.60;1.90;;;9.00;92.10;;;;;;5072015;28;20035;-79
2021/01/20 12:10:33;;;;;;;3.35;2.00;;;9.10;92.00;;;;;;5069922;28;20044;-81
2021/01/20 12:12:59;;;;;;;3.47;1.90;;;9.10;92.20;;;;;;5072367;28;20141;-80
2021/01/20 12:15:24;;;;;;;3.08;1.80;;;9.20;92.00;;;;;;5072725;28;20064;-81
2021/01/20 12:17:50;;;;;;;2.60;1.70;;;9.30;91.80;;;;;;5071114;28;20103;-79
2021/01/20 12:20:16;;;;;;;4.05;1.88;;;9.20;91.40;;;;;;5072988;28;20470;-76
2021/01/20 12:22:41;;;;;;;3.22;1.88;;;9.30;91.70;;;;;;5071048;28;20029;-76
2021/01/20 12:25:07;;;;;;;2.85;1.70;;;9.20;91.10;;;;;;5071783;28;20021;-77
2021/01/20 12:27:33;;;;;;;3.13;1.70;;;9.30;90.80;;;;;;5071575;28;20032;-77
2021/01/20 12:29:59;;;;;;;3.42;1.85;;;9.30;90.80;;;;;;5070913;28;20083;-74
2021/01/20 12:32:25;;;;;;;4.57;1.98;;;9.30;90.60;;;;;;5072253;28;20036;-76
2021/01/20 12:34:50;;;;;;;3.58;1.80;;;9.30;90.10;;;;;;5072866;28;20078;-76
2021/01/20 12:37:16;;;;;;;2.25;1.80;;;9.40;90.50;;;;;;5071328;28;20028;-76
2021/01/20 12:39:41;;;;;;;1.88;1.45;;;9.40;90.30;;;;;;5070663;28;20068;-76
2021/01/20 12:42:07;;;;;;;2.10;1.70;;;9.40;90.20;;;;;;5073031;28;20036;-76
2021/01/20 12:44:32;;;;;;;3.65;1.85;;;9.40;89.50;;;;;;5069947;28;20070;-76
2021/01/20 12:46:58;;;;;;;2.90;1.63;;;9.40;89.20;;;;;;5073219;28;20376;-76
2021/01/20 12:49:23;;;;;;;2.53;1.77;;;9.40;88.70;;;;;;5071346;28;20031;-76
2021/01/20 12:51:49;;;;;;;3.13;2.03;;;9.40;89.40;;;;;;5071580;28;20376;-77
2021/01/20 12:54:14;;;;;;;4.10;1.85;;;9.50;89.20;;;;;;5073221;28;21400;-77
2021/01/20 12:56:40;;;;;;;6.60;1.83;;;9.50;88.50;;;;;;5069562;28;20064;-76
2021/01/20 12:59:05;;;;;;;3.70;1.55;;;9.60;88.00;;;;;;5072318;28;20506;-77
2021/01/20 13:01:31;;;;;;;2.30;1.40;;;9.50;87.70;;;;;;5070638;28;20039;-79
2021/01/20 13:03:56;;;;;;;2.88;1.80;;;9.50;87.80;;;;;;5072605;28;20111;-79
2021/01/20 13:06:22;;;;;;;5.38;1.67;;;9.50;88.00;;;;;;5070208;28;20037;-79